createdAt,value
2016-03-24T00:00:17.266Z,61.32
2016-03-24T00:01:17.284Z,61.32
2016-03-24T00:02:17.302Z,61.52
2016-03-24T00:03:17.274Z,61.23
2016-03-24T00:04:17.339Z,61.32
2016-03-24T00:05:17.358Z,61.32
2016-03-24T00:06:17.376Z,61.42
2016-03-24T00:07:17.379Z,61.52
2016-03-24T00:08:17.396Z,61.23
2016-03-24T00:09:17.416Z,61.13
2016-03-24T00:10:17.433Z,61.23
2016-03-24T00:11:17.452Z,61.52
2016-03-24T00:12:17.470Z,61.42
2016-03-24T00:13:17.488Z,61.71
2016-03-24T00:14:17.507Z,61.61
2016-03-24T00:15:17.526Z,61.52
2016-03-24T00:16:17.543Z,61.8
2016-03-24T00:17:17.562Z,61.32
2016-03-24T00:18:17.580Z,61.9
2016-03-24T00:19:17.598Z,61.9
2016-03-24T00:20:17.617Z,61.8
2016-03-24T00:21:17.619Z,61.8
2016-03-24T00:22:17.638Z,61.42
2016-03-24T00:23:17.656Z,61.9
2016-03-24T00:24:17.675Z,61.8
2016-03-24T00:25:17.692Z,61.9
2016-03-24T00:26:17.711Z,61.9
2016-03-24T00:27:17.729Z,61.8
2016-03-24T00:28:17.748Z,61.61
2016-03-24T00:29:17.750Z,61.8
2016-03-24T00:30:17.784Z,61.8
2016-03-24T00:31:17.787Z,61.8
2016-03-24T00:32:17.806Z,61.9
2016-03-24T00:33:18.042Z,61.8
2016-03-24T00:34:17.841Z,61.71
2016-03-24T00:35:17.860Z,61.8
2016-03-24T00:36:17.878Z,61.99
2016-03-24T00:37:17.897Z,61.9
2016-03-24T00:38:17.915Z,62.18
2016-03-24T00:39:17.933Z,61.99
2016-03-24T00:40:17.935Z,61.8
2016-03-24T00:41:17.971Z,61.8
2016-03-24T00:42:17.973Z,62.37
2016-03-24T00:43:17.991Z,61.9
2016-03-24T00:44:18.009Z,61.99
2016-03-24T00:45:18.028Z,61.9
2016-03-24T00:46:18.046Z,61.8
2016-03-24T00:47:18.065Z,61.8
2016-03-24T00:48:18.082Z,61.87
2016-03-24T00:49:18.101Z,61.9
2016-03-24T00:50:18.120Z,61.68
2016-03-24T00:51:18.137Z,62.34
2016-03-24T00:52:18.156Z,62.34
2016-03-24T00:53:18.158Z,62.46
2016-03-24T00:54:18.176Z,62.62
2016-03-24T00:55:18.195Z,62.56
2016-03-24T00:56:18.214Z,62.75
2016-03-24T00:57:18.231Z,61.77
2016-03-24T00:58:18.250Z,61.77
2016-03-24T00:59:18.269Z,62.72
2016-03-24T01:00:18.286Z,61.77
2016-03-24T01:01:18.289Z,62.72
2016-03-24T01:02:18.307Z,62.34
2016-03-24T01:03:18.342Z,61.58
2016-03-24T01:04:18.344Z,61.77
2016-03-24T01:05:18.363Z,62.34
2016-03-24T01:06:18.380Z,62.15
2016-03-24T01:07:18.399Z,62.62
2016-03-24T01:08:18.417Z,62.53
2016-03-24T01:09:18.436Z,62.34
2016-03-24T01:10:18.438Z,62.72
2016-03-24T01:11:18.457Z,62.05
2016-03-24T01:12:18.475Z,62.43
2016-03-24T01:13:18.494Z,62.34
2016-03-24T01:14:18.512Z,62.24
2016-03-24T01:15:18.530Z,62.15
2016-03-24T01:16:18.548Z,62.34
2016-03-24T01:17:18.613Z,62.24
2016-03-24T01:18:18.678Z,61.87
2016-03-24T01:19:18.603Z,62.15
2016-03-24T01:20:18.606Z,62.53
2016-03-24T01:21:18.623Z,62.15
2016-03-24T01:22:18.642Z,62.15
2016-03-24T01:23:18.661Z,62.24
2016-03-24T01:24:18.679Z,62.24
2016-03-24T01:25:18.697Z,62.15
2016-03-24T01:26:18.701Z,62.34
2016-03-24T01:27:18.719Z,62.43
2016-03-24T01:28:18.737Z,62.24
2016-03-24T01:29:18.755Z,62.62
2016-03-24T01:30:18.773Z,62.43
2016-03-24T01:31:18.791Z,62.34
2016-03-24T01:32:18.811Z,62.43
2016-03-24T01:33:18.703Z,62.15
2016-03-24T01:34:18.847Z,62.24
2016-03-24T01:35:18.865Z,62.34
2016-03-24T01:36:18.883Z,62.34
2016-03-24T01:37:18.886Z,62.24
2016-03-24T01:38:18.905Z,62.34
2016-03-24T01:39:18.922Z,62.62
2016-03-24T01:40:18.941Z,62.53
2016-03-24T01:41:18.960Z,61.68
2016-03-24T01:42:18.977Z,62.72
2016-03-24T01:43:18.996Z,62.43
2016-03-24T01:44:19.014Z,62.62
2016-03-24T01:45:19.017Z,62.34
2016-03-24T01:46:19.035Z,62.15
2016-03-24T01:47:19.054Z,62.34
2016-03-24T01:48:19.087Z,62.43
2016-03-24T01:49:19.090Z,62.53
2016-03-24T01:50:19.108Z,62.43
2016-03-24T01:51:19.127Z,62.72
2016-03-24T01:52:19.145Z,62.15
2016-03-24T01:53:19.164Z,62.24
2016-03-24T01:54:19.182Z,62.43
2016-03-24T01:55:19.185Z,62.62
2016-03-24T01:56:19.203Z,62.15
2016-03-24T01:57:19.221Z,62.15
2016-03-24T01:58:19.239Z,62.31
2016-03-24T01:59:19.258Z,62.12
2016-03-24T02:00:19.276Z,62.4
2016-03-24T02:01:19.294Z,61.96
2016-03-24T02:02:19.297Z,62.34
2016-03-24T02:03:19.315Z,61.83
2016-03-24T02:04:19.333Z,62.5
2016-03-24T02:05:19.352Z,62.31
2016-03-24T02:06:19.370Z,62.21
2016-03-24T02:07:19.372Z,62.59
2016-03-24T02:08:19.407Z,62.4
2016-03-24T02:09:19.425Z,62.59
2016-03-24T02:10:19.428Z,62.4
2016-03-24T02:11:19.446Z,62.4
2016-03-24T02:12:19.465Z,62.4
2016-03-24T02:13:19.482Z,62.5
2016-03-24T02:14:19.502Z,62.69
2016-03-24T02:15:19.504Z,62.69
2016-03-24T02:16:19.521Z,62.12
2016-03-24T02:17:19.540Z,62.21
2016-03-24T02:18:19.574Z,62.31
2016-03-24T02:19:19.577Z,62.21
2016-03-24T02:20:19.596Z,62.12
2016-03-24T02:21:19.614Z,62.4
2016-03-24T02:22:19.632Z,62.5
2016-03-24T02:23:19.635Z,62.5
2016-03-24T02:24:19.654Z,62.5
2016-03-24T02:25:19.671Z,63.17
2016-03-24T02:26:19.690Z,63.07
2016-03-24T02:27:19.708Z,62.88
2016-03-24T02:28:19.726Z,62.78
2016-03-24T02:29:19.729Z,62.78
2016-03-24T02:30:19.763Z,63.07
2016-03-24T02:31:19.766Z,62.88
2016-03-24T02:32:19.799Z,62.97
2016-03-24T02:33:19.802Z,63.17
2016-03-24T02:34:19.820Z,63.45
2016-03-24T02:35:19.839Z,63.54
2016-03-24T02:36:19.857Z,63.54
2016-03-24T02:37:19.875Z,63.45
2016-03-24T02:38:19.878Z,63.45
2016-03-24T02:39:19.913Z,63.54
2016-03-24T02:40:19.916Z,63.07
2016-03-24T02:41:19.933Z,63.07
2016-03-24T02:42:19.952Z,62.78
2016-03-24T02:43:19.970Z,63.17
2016-03-24T02:44:19.988Z,63.73
2016-03-24T02:45:19.991Z,63.64
2016-03-24T02:46:20.009Z,63.35
2016-03-24T02:47:20.027Z,63.26
2016-03-24T02:48:20.046Z,63.83
2016-03-24T02:49:20.065Z,63.73
2016-03-24T02:50:20.067Z,63.54
2016-03-24T02:51:20.085Z,63.64
2016-03-24T02:52:20.104Z,62.97
2016-03-24T02:53:20.122Z,63.17
2016-03-24T02:54:20.140Z,63.64
2016-03-24T02:55:20.159Z,63.73
2016-03-24T02:56:20.176Z,63.35
2016-03-24T02:57:20.179Z,63.64
2016-03-24T02:58:20.198Z,63.35
2016-03-24T02:59:20.216Z,63.64
2016-03-24T03:00:20.234Z,63.45
2016-03-24T03:01:20.252Z,63.64
2016-03-24T03:02:20.270Z,63.54
2016-03-24T03:03:20.289Z,63.35
2016-03-24T03:04:20.292Z,63.54
2016-03-24T03:05:20.325Z,63.64
2016-03-24T03:06:20.173Z,63.54
2016-03-24T03:07:20.347Z,63.64
2016-03-24T03:08:20.366Z,64.02
2016-03-24T03:09:20.383Z,63.54
2016-03-24T03:10:20.386Z,64.11
2016-03-24T03:11:20.404Z,64.21
2016-03-24T03:12:20.423Z,63.83
2016-03-24T03:13:20.441Z,63.26
2016-03-24T03:14:20.460Z,63.45
2016-03-24T03:15:20.462Z,63.92
2016-03-24T03:16:20.496Z,64.02
2016-03-24T03:17:20.529Z,63.73
2016-03-24T03:18:20.518Z,64.02
2016-03-24T03:19:20.535Z,63.92
2016-03-24T03:20:20.554Z,63.64
2016-03-24T03:21:20.572Z,63.73
2016-03-24T03:22:20.591Z,64.11
2016-03-24T03:23:20.624Z,64.11
2016-03-24T03:24:20.612Z,64.21
2016-03-24T03:25:20.629Z,64.49
2016-03-24T03:26:20.648Z,64.4
2016-03-24T03:27:20.667Z,64.11
2016-03-24T03:28:20.685Z,64.02
2016-03-24T03:29:20.703Z,63.73
2016-03-24T03:30:20.737Z,64.78
2016-03-24T03:31:20.723Z,64.49
2016-03-24T03:32:20.742Z,64.4
2016-03-24T03:33:20.761Z,64.3
2016-03-24T03:34:20.779Z,64.11
2016-03-24T03:35:20.782Z,64.4
2016-03-24T03:36:20.816Z,64.78
2016-03-24T03:37:20.819Z,64.69
2016-03-24T03:38:20.836Z,64.21
2016-03-24T03:39:20.855Z,64.3
2016-03-24T03:40:20.872Z,64.49
2016-03-24T03:41:20.892Z,65.16
2016-03-24T03:42:20.925Z,65.25
2016-03-24T03:43:20.913Z,64.87
2016-03-24T03:44:20.930Z,64.87
2016-03-24T03:45:20.949Z,65.06
2016-03-24T03:46:20.951Z,64.97
2016-03-24T03:47:20.985Z,64.69
2016-03-24T03:48:20.988Z,64.4
2016-03-24T03:49:21.007Z,65.06
2016-03-24T03:50:21.024Z,64.49
2016-03-24T03:51:21.044Z,64.97
2016-03-24T03:52:21.062Z,64.87
2016-03-24T03:53:21.080Z,64.65
2016-03-24T03:54:21.082Z,64.84
2016-03-24T03:55:21.101Z,64.75
2016-03-24T03:56:21.119Z,64.87
2016-03-24T03:57:21.138Z,64.75
2016-03-24T03:58:21.156Z,65.25
2016-03-24T03:59:21.174Z,65.25
2016-03-24T04:00:21.192Z,64.87
2016-03-24T04:01:21.211Z,65.25
2016-03-24T04:02:21.229Z,65.35
2016-03-24T04:03:21.232Z,65.5
2016-03-24T04:04:21.250Z,65.41
2016-03-24T04:05:21.253Z,65.41
2016-03-24T04:06:21.272Z,64.84
2016-03-24T04:07:21.294Z,64.75
2016-03-24T04:08:21.313Z,65.41
2016-03-24T04:09:21.315Z,64.75
2016-03-24T04:10:21.349Z,65.41
2016-03-24T04:11:21.351Z,64.94
2016-03-24T04:12:21.371Z,65.03
2016-03-24T04:13:21.388Z,65.22
2016-03-24T04:14:21.407Z,65.6
2016-03-24T04:15:21.409Z,65.22
2016-03-24T04:16:21.428Z,65.69
2016-03-24T04:17:21.446Z,65.22
2016-03-24T04:18:21.465Z,65.41
2016-03-24T04:19:21.482Z,65.31
2016-03-24T04:20:21.485Z,65.5
2016-03-24T04:21:21.504Z,65.31
2016-03-24T04:22:21.523Z,65.41
2016-03-24T04:23:21.540Z,65.69
2016-03-24T04:24:21.559Z,65.5
2016-03-24T04:25:21.577Z,65.41
2016-03-24T04:26:21.595Z,65.6
2016-03-24T04:27:21.614Z,65.12
2016-03-24T04:28:21.617Z,65.5
2016-03-24T04:29:21.650Z,65.69
2016-03-24T04:30:21.653Z,65.69
2016-03-24T04:31:21.672Z,65.6
2016-03-24T04:32:21.689Z,65.41
2016-03-24T04:33:21.708Z,65.5
2016-03-24T04:34:21.710Z,65.31
2016-03-24T04:35:21.728Z,65.41
2016-03-24T04:36:21.747Z,65.41
2016-03-24T04:37:21.766Z,65.22
2016-03-24T04:38:21.783Z,65.41
2016-03-24T04:39:21.786Z,65.41
2016-03-24T04:40:21.804Z,65.41
2016-03-24T04:41:21.823Z,65.6
2016-03-24T04:42:21.841Z,65.22
2016-03-24T04:43:21.860Z,65.22
2016-03-24T04:44:21.862Z,65.41
2016-03-24T04:45:21.896Z,65.6
2016-03-24T04:46:21.899Z,65.41
2016-03-24T04:47:21.918Z,65.41
2016-03-24T04:48:21.935Z,65.88
2016-03-24T04:49:21.938Z,65.69
2016-03-24T04:50:21.956Z,66.08
2016-03-24T04:51:21.976Z,66.27
2016-03-24T04:52:21.993Z,65.79
2016-03-24T04:53:22.012Z,65.88
2016-03-24T04:54:22.029Z,66.17
2016-03-24T04:55:22.032Z,65.88
2016-03-24T04:56:22.050Z,65.88
2016-03-24T04:57:22.070Z,65.98
2016-03-24T04:58:22.087Z,65.6
2016-03-24T04:59:22.106Z,66.36
2016-03-24T05:00:22.108Z,66.64
2016-03-24T05:01:22.143Z,66.55
2016-03-24T05:02:22.145Z,65.88
2016-03-24T05:03:22.164Z,66.46
2016-03-24T05:04:22.181Z,66.36
2016-03-24T05:05:22.200Z,66.27
2016-03-24T05:06:22.202Z,66.08
2016-03-24T05:07:22.222Z,66.64
2016-03-24T05:08:22.239Z,66.17
2016-03-24T05:09:22.258Z,66.46
2016-03-24T05:10:22.276Z,66.27
2016-03-24T05:11:22.294Z,66.36
2016-03-24T05:12:22.297Z,65.98
2016-03-24T05:13:22.330Z,66.27
2016-03-24T05:14:22.318Z,66.27
2016-03-24T05:15:22.336Z,66.17
2016-03-24T05:16:22.355Z,66.17
2016-03-24T05:17:22.373Z,66.27
2016-03-24T05:18:22.407Z,66.08
2016-03-24T05:19:22.410Z,66.83
2016-03-24T05:20:22.428Z,66.74
2016-03-24T05:21:22.446Z,66.17
2016-03-24T05:22:22.449Z,66.64
2016-03-24T05:23:22.467Z,66.74
2016-03-24T05:24:22.485Z,66.74
2016-03-24T05:25:22.503Z,66.74
2016-03-24T05:26:22.522Z,66.17
2016-03-24T05:27:22.525Z,65.98
2016-03-24T05:28:22.543Z,66.55
2016-03-24T05:29:22.561Z,66.36
2016-03-24T05:30:22.580Z,66.55
2016-03-24T05:31:22.598Z,66.27
2016-03-24T05:32:22.601Z,66.64
2016-03-24T05:33:22.619Z,66.08
2016-03-24T05:34:22.637Z,66.36
2016-03-24T05:35:22.655Z,66.27
2016-03-24T05:36:22.675Z,66.17
2016-03-24T05:37:22.692Z,66.64
2016-03-24T05:38:22.711Z,65.98
2016-03-24T05:39:22.713Z,65.79
2016-03-24T05:40:22.732Z,66.46
2016-03-24T05:41:22.749Z,66.27
2016-03-24T05:42:22.769Z,65.98
2016-03-24T05:43:22.771Z,66.83
2016-03-24T05:44:22.789Z,66.74
2016-03-24T05:45:22.808Z,66.17
2016-03-24T05:46:22.827Z,66.55
2016-03-24T05:47:22.844Z,66.36
2016-03-24T05:48:22.863Z,66.55
2016-03-24T05:49:22.865Z,66.55
2016-03-24T05:50:22.884Z,66.17
2016-03-24T05:51:22.902Z,66.17
2016-03-24T05:52:22.921Z,66.08
2016-03-24T05:53:22.938Z,66.64
2016-03-24T05:54:22.957Z,66.83
2016-03-24T05:55:22.959Z,66.64
2016-03-24T05:56:22.978Z,66.27
2016-03-24T05:57:22.996Z,66.36
2016-03-24T05:58:23.015Z,66.08
2016-03-24T05:59:29.517Z,66.17
2016-03-24T06:00:23.067Z,66.83
2016-03-24T06:01:23.070Z,66.64
2016-03-24T06:02:23.087Z,66.36
2016-03-24T06:03:23.090Z,66.55
2016-03-24T06:04:23.108Z,66.36
2016-03-24T06:05:23.111Z,66.27
2016-03-24T06:06:23.130Z,66.27
2016-03-24T06:07:23.148Z,66.55
2016-03-24T06:08:23.167Z,66.36
2016-03-24T06:09:23.185Z,66.36
2016-03-24T06:10:23.202Z,66.36
2016-03-24T06:11:23.205Z,65.98
2016-03-24T06:12:23.224Z,66.36
2016-03-24T06:13:23.242Z,66.36
2016-03-24T06:14:23.260Z,66.46
2016-03-24T06:15:23.279Z,66.27
2016-03-24T06:16:23.282Z,66.36
2016-03-24T06:17:23.300Z,65.98
2016-03-24T06:18:23.318Z,66.55
2016-03-24T06:19:23.430Z,66.36
2016-03-24T06:20:23.339Z,66.27
2016-03-24T06:21:23.373Z,66.64
2016-03-24T06:22:23.376Z,66.55
2016-03-24T06:23:23.394Z,66.17
2016-03-24T06:24:23.412Z,66.17
2016-03-24T06:25:23.431Z,66.83
2016-03-24T06:26:23.433Z,66.64
2016-03-24T06:27:23.452Z,66.17
2016-03-24T06:28:23.470Z,66.17
2016-03-24T06:29:23.520Z,66.46
2016-03-24T06:30:23.506Z,66.27
2016-03-24T06:31:23.526Z,66.46
2016-03-24T06:32:23.528Z,66.3
2016-03-24T06:33:23.562Z,66.74
2016-03-24T06:34:23.564Z,67.06
2016-03-24T06:35:23.583Z,66.36
2016-03-24T06:36:23.601Z,66.74
2016-03-24T06:37:23.620Z,66.55
2016-03-24T06:38:23.622Z,66.55
2016-03-24T06:39:23.641Z,66.55
2016-03-24T06:40:23.658Z,66.36
2016-03-24T06:41:23.677Z,66.77
2016-03-24T06:42:23.680Z,66.36
2016-03-24T06:43:23.698Z,66.27
2016-03-24T06:44:23.716Z,66.55
2016-03-24T06:45:23.735Z,66.67
2016-03-24T06:46:23.753Z,66.3
2016-03-24T06:47:23.772Z,66.17
2016-03-24T06:48:23.790Z,66.36
2016-03-24T06:49:23.792Z,66.55
2016-03-24T06:50:23.810Z,65.98
2016-03-24T06:51:23.844Z,66.08
2016-03-24T06:52:23.863Z,66.55
2016-03-24T06:53:23.865Z,66.2
2016-03-24T06:54:23.884Z,66.2
2016-03-24T06:55:23.901Z,66.58
2016-03-24T06:56:23.905Z,66.27
2016-03-24T06:57:23.923Z,66.49
2016-03-24T06:58:23.942Z,66.36
2016-03-24T06:59:23.959Z,66.27
2016-03-24T07:00:23.979Z,66.36
2016-03-24T07:01:23.981Z,66.2
2016-03-24T07:02:23.999Z,66.2
2016-03-24T07:03:24.017Z,66.49
2016-03-24T07:04:24.036Z,66.2
2016-03-24T07:05:24.054Z,66.3
2016-03-24T07:06:24.073Z,66.3
2016-03-24T07:07:24.075Z,66.49
2016-03-24T07:08:24.094Z,66.77
2016-03-24T07:09:24.097Z,66.2
2016-03-24T07:10:24.115Z,66.11
2016-03-24T07:11:24.133Z,66.58
2016-03-24T07:12:24.150Z,66.11
2016-03-24T07:13:24.169Z,66.58
2016-03-24T07:14:24.203Z,66.67
2016-03-24T07:15:24.222Z,66.49
2016-03-24T07:16:24.224Z,66.39
2016-03-24T07:17:24.243Z,66.39
2016-03-24T07:18:24.245Z,66.39
2016-03-24T07:19:24.264Z,66.49
2016-03-24T07:20:24.282Z,66.2
2016-03-24T07:21:24.299Z,66.58
2016-03-24T07:22:24.319Z,66.67
2016-03-24T07:23:24.337Z,66.11
2016-03-24T07:24:24.340Z,66.2
2016-03-24T07:25:24.358Z,66.11
2016-03-24T07:26:24.376Z,66.3
2016-03-24T07:27:24.395Z,66.39
2016-03-24T07:28:24.413Z,66.49
2016-03-24T07:29:24.416Z,66.3
2016-03-24T07:30:24.434Z,66.58
2016-03-24T07:31:24.451Z,66.49
2016-03-24T07:32:24.471Z,66.67
2016-03-24T07:33:24.489Z,66.3
2016-03-24T07:34:24.507Z,66.49
2016-03-24T07:35:24.526Z,66.58
2016-03-24T07:36:24.528Z,66.3
2016-03-24T07:37:24.547Z,66.11
2016-03-24T07:38:24.564Z,65.82
2016-03-24T07:39:24.583Z,65.92
2016-03-24T07:40:24.586Z,65.82
2016-03-24T07:41:24.603Z,66.3
2016-03-24T07:42:24.622Z,65.82
2016-03-24T07:43:24.641Z,66.11
2016-03-24T07:44:24.659Z,66.11
2016-03-24T07:45:24.677Z,65.82
2016-03-24T07:46:24.539Z,66.2
2016-03-24T07:47:24.713Z,65.82
2016-03-24T07:48:24.717Z,66.2
2016-03-24T07:49:24.735Z,66.11
2016-03-24T07:50:24.752Z,66.01
2016-03-24T07:51:24.772Z,65.92
2016-03-24T07:52:24.790Z,66.01
2016-03-24T07:53:24.793Z,66.01
2016-03-24T07:54:24.811Z,66.11
2016-03-24T07:55:24.829Z,66.11
2016-03-24T07:56:24.848Z,66.05
2016-03-24T07:57:24.866Z,65.76
2016-03-24T07:58:24.869Z,65.86
2016-03-24T07:59:24.887Z,65.95
2016-03-24T08:00:24.904Z,65.57
2016-03-24T08:01:24.924Z,65.67
2016-03-24T08:02:24.942Z,65.67
2016-03-24T08:03:24.960Z,65.76
2016-03-24T08:04:24.979Z,65.67
2016-03-24T08:05:24.981Z,65.76
2016-03-24T08:06:24.999Z,65.19
2016-03-24T08:07:25.044Z,65.38
2016-03-24T08:08:25.030Z,65.47
2016-03-24T08:09:25.049Z,65.47
2016-03-24T08:10:25.067Z,65
2016-03-24T08:11:25.069Z,65.28
2016-03-24T08:12:25.103Z,65.47
2016-03-24T08:13:25.105Z,65.19
2016-03-24T08:14:25.124Z,65.28
2016-03-24T08:15:25.143Z,65.28
2016-03-24T08:16:25.161Z,64.9
2016-03-24T08:17:25.179Z,64.9
2016-03-24T08:18:25.198Z,64.9
2016-03-24T08:19:25.201Z,64.81
2016-03-24T08:20:25.219Z,65
2016-03-24T08:21:25.237Z,65.19
2016-03-24T08:22:25.254Z,65
2016-03-24T08:23:25.274Z,64.81
2016-03-24T08:24:25.276Z,64.43
2016-03-24T08:25:25.310Z,64.34
2016-03-24T08:26:25.313Z,64.53
2016-03-24T08:27:25.331Z,64.34
2016-03-24T08:28:25.350Z,64.43
2016-03-24T08:29:25.368Z,64.53
2016-03-24T08:30:25.386Z,64.53
2016-03-24T08:31:25.404Z,64.34
2016-03-24T08:32:25.423Z,64.53
2016-03-24T08:33:25.425Z,64.43
2016-03-24T08:34:25.433Z,64.37
2016-03-24T08:35:25.435Z,64.56
2016-03-24T08:36:25.437Z,64.05
2016-03-24T08:37:25.441Z,64.08
2016-03-24T08:38:25.442Z,63.89
2016-03-24T08:39:25.467Z,63.79
2016-03-24T08:40:25.465Z,63.79
2016-03-24T08:41:25.461Z,64.18
2016-03-24T08:42:25.475Z,63.99
2016-03-24T08:43:25.487Z,63.99
2016-03-24T08:44:25.502Z,64.18
2016-03-24T08:45:25.518Z,64.08
2016-03-24T08:46:25.550Z,64.37
2016-03-24T08:47:25.552Z,64.27
2016-03-24T08:48:25.552Z,63.99
2016-03-24T08:49:25.585Z,63.89
2016-03-24T08:50:25.602Z,64.08
2016-03-24T08:51:25.605Z,63.99
2016-03-24T08:52:25.622Z,63.42
2016-03-24T08:53:25.640Z,63.32
2016-03-24T08:54:25.658Z,63.42
2016-03-24T08:55:25.676Z,62.94
2016-03-24T08:56:25.694Z,63.23
2016-03-24T08:57:25.695Z,63.26
2016-03-24T08:58:25.729Z,63.26
2016-03-24T08:59:25.575Z,62.88
2016-03-24T09:00:25.750Z,62.69
2016-03-24T09:01:25.769Z,62.4
2016-03-24T09:02:25.803Z,62.69
2016-03-24T09:03:25.805Z,62.21
2016-03-24T09:04:25.839Z,62.4
2016-03-24T09:05:25.842Z,62.69
2016-03-24T09:06:25.844Z,62.4
2016-03-24T09:07:25.878Z,62.4
2016-03-24T09:08:25.880Z,61.83
2016-03-24T09:09:25.899Z,61.93
2016-03-24T09:10:25.918Z,61.93
2016-03-24T09:11:25.936Z,61.64
2016-03-24T09:12:25.954Z,61.16
2016-03-24T09:13:25.973Z,60.97
2016-03-24T09:14:26.007Z,60.97
2016-03-24T09:15:26.009Z,61.16
2016-03-24T09:16:26.027Z,60.88
2016-03-24T09:17:26.077Z,61.16
2016-03-24T09:18:26.048Z,61.26
2016-03-24T09:19:26.067Z,60.6
2016-03-24T09:20:26.085Z,60.97
2016-03-24T09:21:26.104Z,60.88
2016-03-24T09:22:26.122Z,61.07
2016-03-24T09:23:26.140Z,60.82
2016-03-24T09:24:26.159Z,61.1
2016-03-24T09:25:26.176Z,61.1
2016-03-24T09:26:26.195Z,60.91
2016-03-24T09:27:26.198Z,60.53
2016-03-24T09:28:26.232Z,60.72
2016-03-24T09:29:26.250Z,60.63
2016-03-24T09:30:26.284Z,60.24
2016-03-24T09:31:26.286Z,60.34
2016-03-24T09:32:26.305Z,60.34
2016-03-24T09:33:26.323Z,60.44
2016-03-24T09:34:26.341Z,60.05
2016-03-24T09:35:26.344Z,60.05
2016-03-24T09:36:26.378Z,60.05
2016-03-24T09:37:26.381Z,59.58
2016-03-24T09:38:26.399Z,59.67
2016-03-24T09:39:26.433Z,59.29
2016-03-24T09:40:26.436Z,59.67
2016-03-24T09:41:26.454Z,59.2
2016-03-24T09:42:26.472Z,59.01
2016-03-24T09:43:26.491Z,58.81
2016-03-24T09:44:26.510Z,58.81
2016-03-24T09:45:26.527Z,58.06
2016-03-24T09:46:26.546Z,57.77
2016-03-24T09:47:26.565Z,57.29
2016-03-24T09:48:26.567Z,57.2
2016-03-24T09:49:26.601Z,57.29
2016-03-24T09:50:26.618Z,57.2
2016-03-24T09:51:26.621Z,57.39
2016-03-24T09:52:26.640Z,57.39
2016-03-24T09:53:26.658Z,57.48
2016-03-24T09:54:26.677Z,57.2
2016-03-24T09:55:26.695Z,57.1
2016-03-24T09:56:26.713Z,56.72
2016-03-24T09:57:26.732Z,56.82
2016-03-24T09:58:26.750Z,56.92
2016-03-24T09:59:26.767Z,56.82
2016-03-24T10:00:26.787Z,57.01
2016-03-24T10:01:26.805Z,57.2
2016-03-24T10:02:26.823Z,57.1
2016-03-24T10:03:26.826Z,57.1
2016-03-24T10:04:26.860Z,57.2
2016-03-24T10:05:26.878Z,57.01
2016-03-24T10:06:26.881Z,56.82
2016-03-24T10:07:26.914Z,56.92
2016-03-24T10:08:26.916Z,56.63
2016-03-24T10:09:26.936Z,57.1
2016-03-24T10:10:26.954Z,56.92
2016-03-24T10:11:26.972Z,56.92
2016-03-24T10:12:26.991Z,56.72
2016-03-24T10:13:27.056Z,56.44
2016-03-24T10:14:27.027Z,56.53
2016-03-24T10:15:27.046Z,56.63
2016-03-24T10:16:27.063Z,56.92
2016-03-24T10:17:27.082Z,57.2
2016-03-24T10:18:27.101Z,56.75
2016-03-24T10:19:27.119Z,56.85
2016-03-24T10:20:27.137Z,56.72
2016-03-24T10:21:27.156Z,56.85
2016-03-24T10:22:27.174Z,56.75
2016-03-24T10:23:27.193Z,56.75
2016-03-24T10:24:27.210Z,56.94
2016-03-24T10:25:27.228Z,57.13
2016-03-24T10:26:27.247Z,56.72
2016-03-24T10:27:27.265Z,57.32
2016-03-24T10:28:27.284Z,56.94
2016-03-24T10:29:27.286Z,57.04
2016-03-24T10:30:27.306Z,56.72
2016-03-24T10:31:27.323Z,56.85
2016-03-24T10:32:27.342Z,57.01
2016-03-24T10:33:27.359Z,56.85
2016-03-24T10:34:27.378Z,56.85
2016-03-24T10:35:27.412Z,56.85
2016-03-24T10:36:27.414Z,57.13
2016-03-24T10:37:27.432Z,56.85
2016-03-24T10:38:27.467Z,57.13
2016-03-24T10:39:27.469Z,57.32
2016-03-24T10:40:27.488Z,56.94
2016-03-24T10:41:27.505Z,57.04
2016-03-24T10:42:27.541Z,57.04
2016-03-24T10:43:27.543Z,57.04
2016-03-24T10:44:27.560Z,56.75
2016-03-24T10:45:27.579Z,56.85
2016-03-24T10:46:27.598Z,56.75
2016-03-24T10:47:27.615Z,56.85
2016-03-24T10:48:27.634Z,56.46
2016-03-24T10:49:27.652Z,56.46
2016-03-24T10:50:27.671Z,57.04
2016-03-24T10:51:27.689Z,56.56
2016-03-24T10:52:27.723Z,56.94
2016-03-24T10:53:27.726Z,56.75
2016-03-24T10:54:27.745Z,56.94
2016-03-24T10:55:27.762Z,56.56
2016-03-24T10:56:27.781Z,57.04
2016-03-24T10:57:27.799Z,56.75
2016-03-24T10:58:27.817Z,56.56
2016-03-24T10:59:27.836Z,56.37
2016-03-24T11:00:27.853Z,56.78
2016-03-24T11:01:27.873Z,56.4
2016-03-24T11:02:27.892Z,56.21
2016-03-24T11:03:27.909Z,56.4
2016-03-24T11:04:27.928Z,56.4
2016-03-24T11:05:27.945Z,56.3
2016-03-24T11:06:27.964Z,56.11
2016-03-24T11:07:27.983Z,55.92
2016-03-24T11:08:28.000Z,55.92
2016-03-24T11:09:28.018Z,55.26
2016-03-24T11:10:28.037Z,55.26
2016-03-24T11:11:28.055Z,55.26
2016-03-24T11:12:28.074Z,55.44
2016-03-24T11:13:28.092Z,54.68
2016-03-24T11:14:28.110Z,54.88
2016-03-24T11:15:28.129Z,55.44
2016-03-24T11:16:28.146Z,54.97
2016-03-24T11:17:28.166Z,55
2016-03-24T11:18:28.184Z,54.61
2016-03-24T11:19:28.202Z,54.43
2016-03-24T11:20:28.220Z,54.8
2016-03-24T11:21:28.238Z,54.43
2016-03-24T11:22:28.257Z,54.43
2016-03-24T11:23:28.290Z,54.24
2016-03-24T11:24:28.294Z,54.33
2016-03-24T11:25:28.312Z,53.85
2016-03-24T11:26:28.330Z,54.14
2016-03-24T11:27:28.349Z,54.61
2016-03-24T11:28:28.367Z,54.71
2016-03-24T11:29:28.384Z,54.61
2016-03-24T11:30:28.404Z,54.61
2016-03-24T11:31:28.422Z,54.17
2016-03-24T11:32:28.440Z,54.74
2016-03-24T11:33:28.475Z,54.45
2016-03-24T11:34:28.477Z,54.26
2016-03-24T11:35:27.761Z,54.45
2016-03-24T11:36:28.513Z,54.64
2016-03-24T11:37:28.531Z,53.78
2016-03-24T11:38:28.566Z,53.59
2016-03-24T11:39:28.584Z,53.59
2016-03-24T11:40:28.602Z,53.21
2016-03-24T11:41:28.621Z,53.72
2016-03-24T11:42:28.655Z,52.86
2016-03-24T11:43:28.657Z,52.57
2016-03-24T11:44:28.675Z,53.05
2016-03-24T11:45:28.694Z,52.48
2016-03-24T11:46:28.712Z,52.48
2016-03-24T11:47:28.731Z,52.09
2016-03-24T11:48:28.765Z,51.81
2016-03-24T11:49:28.767Z,51.62
2016-03-24T11:50:28.785Z,51.64
2016-03-24T11:51:28.803Z,51.07
2016-03-24T11:52:28.821Z,51.54
2016-03-24T11:53:28.840Z,51.45
2016-03-24T11:54:28.859Z,51.54
2016-03-24T11:55:28.893Z,51.54
2016-03-24T11:56:28.911Z,51.45
2016-03-24T11:57:28.929Z,51.17
2016-03-24T11:58:28.948Z,51.54
2016-03-24T11:59:28.965Z,51.45
2016-03-24T12:00:28.984Z,51.35
2016-03-24T12:01:29.003Z,51.35
2016-03-24T12:02:29.021Z,51.45
2016-03-24T12:03:29.039Z,51.38
2016-03-24T12:04:29.073Z,51.57
2016-03-24T12:05:29.091Z,51.48
2016-03-24T12:06:29.109Z,51.19
2016-03-24T12:07:29.112Z,51
2016-03-24T12:08:29.146Z,50.33
2016-03-24T12:09:29.165Z,50.24
2016-03-24T12:10:29.183Z,50.14
2016-03-24T12:11:29.216Z,50.24
2016-03-24T12:12:29.235Z,50.14
2016-03-24T12:13:29.253Z,50.43
2016-03-24T12:14:29.272Z,49.88
2016-03-24T12:15:29.290Z,50.26
2016-03-24T12:16:29.309Z,50.07
2016-03-24T12:17:29.327Z,50.26
2016-03-24T12:18:29.345Z,49.11
2016-03-24T12:19:29.426Z,49.21
2016-03-24T12:20:29.381Z,49.11
2016-03-24T12:21:29.431Z,48.64
2016-03-24T12:22:29.434Z,49.3
2016-03-24T12:23:29.451Z,48.93
2016-03-24T12:24:29.487Z,49.23
2016-03-24T12:25:29.489Z,49.11
2016-03-24T12:26:29.523Z,49.14
2016-03-24T12:27:29.540Z,49.23
2016-03-24T12:28:29.560Z,49.14
2016-03-24T12:29:29.578Z,49.14
2016-03-24T12:30:29.596Z,49.33
2016-03-24T12:31:29.614Z,48.85
2016-03-24T12:32:29.633Z,48.75
2016-03-24T12:33:29.667Z,48.75
2016-03-24T12:34:29.513Z,48.66
2016-03-24T12:35:29.703Z,48.66
2016-03-24T12:36:29.722Z,48.66
2016-03-24T12:37:29.787Z,48.18
2016-03-24T12:38:29.774Z,47.99
2016-03-24T12:39:29.823Z,48.38
2016-03-24T12:40:29.811Z,47.99
2016-03-24T12:41:29.828Z,47.61
2016-03-24T12:42:29.847Z,47.71
2016-03-24T12:43:29.865Z,47.71
2016-03-24T12:44:29.900Z,47.89
2016-03-24T12:45:29.918Z,47.99
2016-03-24T12:46:29.935Z,47.99
2016-03-24T12:47:29.969Z,47.89
2016-03-24T12:48:29.972Z,47.99
2016-03-24T12:49:29.835Z,47.71
2016-03-24T12:50:30.009Z,46.94
2016-03-24T12:51:30.043Z,47.8
2016-03-24T12:52:30.062Z,47.52
2016-03-24T12:53:30.080Z,47.71
2016-03-24T12:54:30.098Z,47.52
2016-03-24T12:55:30.116Z,47.61
2016-03-24T12:56:30.150Z,47.23